Terminal Aerodrome Forecast
Issued by NWS

Home | Current Version | Previous Version | Text Only | Print | Product List | Glossary On
Versions: 1 2 3 4 5 6 7 8 9 10 11 12 13
158
FTUS46 KMTR 251746
TAFSJC
TAF
KSJC 251746Z 2518/2618 14004KT P6SM FEW040 SCT090
     FM252300 31007KT P6SM VCSH FEW030 SCT050 BKN100
     FM260400 29004KT P6SM FEW040 BKN100
     FM260700 30003KT P6SM FEW030 SCT100
     FM261100 00000KT P6SM FEW030
     FM261400 13004KT P6SM SKC=

USA.gov is the U.S. government's official web portal to all federal, state and local government web resources and services.